sensor_id;sensor_type;location;lat;lon;timestamp;temperature;humidity
48752;DHT22;34544;48.836;9.174;2024-03-07T00:01:38;7.00;99.90
48752;DHT22;34544;48.836;9.174;2024-03-07T00:04:04;7.00;99.90
48752;DHT22;34544;48.836;9.174;2024-03-07T00:06:29;6.90;99.90
48752;DHT22;34544;48.836;9.174;2024-03-07T00:08:55;6.90;99.90
48752;DHT22;34544;48.836;9.174;2024-03-07T00:11:21;6.90;99.90
48752;DHT22;34544;48.836;9.174;2024-03-07T00:13:46;6.90;99.90
48752;DHT22;34544;48.836;9.174;2024-03-07T00:16:12;6.90;99.90
48752;DHT22;34544;48.836;9.174;2024-03-07T00:18:39;6.90;99.90
48752;DHT22;34544;48.836;9.174;2024-03-07T00:21:05;6.90;99.90
48752;DHT22;34544;48.836;9.174;2024-03-07T00:23:30;6.90;99.90
48752;DHT22;34544;48.836;9.174;2024-03-07T00:25:57;6.80;99.90
48752;DHT22;34544;48.836;9.174;2024-03-07T00:28:23;6.90;99.90
48752;DHT22;34544;48.836;9.174;2024-03-07T00:30:49;6.80;99.90
48752;DHT22;34544;48.836;9.174;2024-03-07T00:33:14;6.80;99.90
48752;DHT22;34544;48.836;9.174;2024-03-07T00:35:41;6.80;99.90
48752;DHT22;34544;48.836;9.174;2024-03-07T00:38:06;6.80;99.90
48752;DHT22;34544;48.836;9.174;2024-03-07T00:40:32;6.80;99.90
48752;DHT22;34544;48.836;9.174;2024-03-07T00:42:58;6.80;99.90
48752;DHT22;34544;48.836;9.174;2024-03-07T00:45:25;6.80;99.90
48752;DHT22;34544;48.836;9.174;2024-03-07T00:47:51;6.80;99.90
48752;DHT22;34544;48.836;9.174;2024-03-07T00:50:17;6.80;99.90
48752;DHT22;34544;48.836;9.174;2024-03-07T00:52:43;6.80;99.90
48752;DHT22;34544;48.836;9.174;2024-03-07T00:55:09;6.70;99.90
48752;DHT22;34544;48.836;9.174;2024-03-07T00:57:35;6.60;99.90
48752;DHT22;34544;48.836;9.174;2024-03-07T01:00:01;6.60;99.90
48752;DHT22;34544;48.836;9.174;2024-03-07T01:02:27;6.60;99.90
48752;DHT22;34544;48.836;9.174;2024-03-07T01:04:53;6.50;99.90
48752;DHT22;34544;48.836;9.174;2024-03-07T01:07:20;6.40;99.90
48752;DHT22;34544;48.836;9.174;2024-03-07T01:09:47;6.40;99.90
48752;DHT22;34544;48.836;9.174;2024-03-07T01:12:13;6.30;99.90
48752;DHT22;34544;48.836;9.174;2024-03-07T01:14:39;6.20;99.90
48752;DHT22;34544;48.836;9.174;2024-03-07T01:19:33;6.00;99.90
48752;DHT22;34544;48.836;9.174;2024-03-07T01:21:59;5.90;99.90
48752;DHT22;34544;48.836;9.174;2024-03-07T01:26:51;5.70;99.90
48752;DHT22;34544;48.836;9.174;2024-03-07T01:29:17;5.60;99.90
48752;DHT22;34544;48.836;9.174;2024-03-07T01:31:43;5.50;99.90
48752;DHT22;34544;48.836;9.174;2024-03-07T01:34:09;5.50;99.90
48752;DHT22;34544;48.836;9.174;2024-03-07T01:36:34;5.30;99.90
48752;DHT22;34544;48.836;9.174;2024-03-07T01:39:00;5.20;99.90
48752;DHT22;34544;48.836;9.174;2024-03-07T01:41:27;5.10;99.90
48752;DHT22;34544;48.836;9.174;2024-03-07T01:43:52;5.00;99.90
48752;DHT22;34544;48.836;9.174;2024-03-07T01:46:18;5.00;99.90
48752;DHT22;34544;48.836;9.174;2024-03-07T01:48:45;4.90;99.90
48752;DHT22;34544;48.836;9.174;2024-03-07T01:51:12;4.80;99.90
48752;DHT22;34544;48.836;9.174;2024-03-07T01:53:38;4.70;99.90
48752;DHT22;34544;48.836;9.174;2024-03-07T01:56:05;4.70;99.90
48752;DHT22;34544;48.836;9.174;2024-03-07T01:58:31;4.60;99.90
48752;DHT22;34544;48.836;9.174;2024-03-07T02:00:58;4.50;99.90
48752;DHT22;34544;48.836;9.174;2024-03-07T02:05:51;4.50;99.90
48752;DHT22;34544;48.836;9.174;2024-03-07T02:08:17;4.50;99.90
48752;DHT22;34544;48.836;9.174;2024-03-07T02:10:45;4.50;99.90
48752;DHT22;34544;48.836;9.174;2024-03-07T02:13:11;5.30;99.90
48752;DHT22;34544;48.836;9.174;2024-03-07T02:15:37;4.30;99.90
48752;DHT22;34544;48.836;9.174;2024-03-07T02:18:03;4.30;99.90
48752;DHT22;34544;48.836;9.174;2024-03-07T02:20:29;4.40;99.90
48752;DHT22;34544;48.836;9.174;2024-03-07T02:22:55;4.20;99.90
48752;DHT22;34544;48.836;9.174;2024-03-07T02:25:21;4.10;99.90
48752;DHT22;34544;48.836;9.174;2024-03-07T02:27:47;4.00;99.90
48752;DHT22;34544;48.836;9.174;2024-03-07T02:30:13;3.90;99.90
48752;DHT22;34544;48.836;9.174;2024-03-07T02:32:40;3.80;99.90
48752;DHT22;34544;48.836;9.174;2024-03-07T02:35:06;3.70;99.90
48752;DHT22;34544;48.836;9.174;2024-03-07T02:37:32;3.80;99.90
48752;DHT22;34544;48.836;9.174;2024-03-07T02:39:58;3.60;99.90
48752;DHT22;34544;48.836;9.174;2024-03-07T02:42:24;3.50;99.90
48752;DHT22;34544;48.836;9.174;2024-03-07T02:44:50;3.50;99.90
48752;DHT22;34544;48.836;9.174;2024-03-07T02:47:17;3.40;99.90
48752;DHT22;34544;48.836;9.174;2024-03-07T02:49:43;3.40;99.90
48752;DHT22;34544;48.836;9.174;2024-03-07T02:52:09;3.30;99.90
48752;DHT22;34544;48.836;9.174;2024-03-07T02:54:35;3.30;99.90
48752;DHT22;34544;48.836;9.174;2024-03-07T02:57:01;3.20;99.90
48752;DHT22;34544;48.836;9.174;2024-03-07T02:59:27;3.20;99.90
48752;DHT22;34544;48.836;9.174;2024-03-07T03:01:53;3.10;99.90
48752;DHT22;34544;48.836;9.174;2024-03-07T03:04:19;3.10;99.90
48752;DHT22;34544;48.836;9.174;2024-03-07T03:06:45;3.10;99.90
48752;DHT22;34544;48.836;9.174;2024-03-07T03:09:12;3.00;99.90
48752;DHT22;34544;48.836;9.174;2024-03-07T03:11:44;3.00;99.90
48752;DHT22;34544;48.836;9.174;2024-03-07T03:14:10;2.90;99.90
48752;DHT22;34544;48.836;9.174;2024-03-07T03:16:42;2.90;99.90
48752;DHT22;34544;48.836;9.174;2024-03-07T03:19:09;2.90;99.90
48752;DHT22;34544;48.836;9.174;2024-03-07T03:21:35;2.90;99.90
48752;DHT22;34544;48.836;9.174;2024-03-07T03:24:00;2.80;99.90
48752;DHT22;34544;48.836;9.174;2024-03-07T03:26:28;2.80;99.90
48752;DHT22;34544;48.836;9.174;2024-03-07T03:28:54;2.80;99.90
48752;DHT22;34544;48.836;9.174;2024-03-07T03:31:20;2.80;99.90
48752;DHT22;34544;48.836;9.174;2024-03-07T03:33:46;2.80;99.90
48752;DHT22;34544;48.836;9.174;2024-03-07T03:36:11;2.80;99.90
48752;DHT22;34544;48.836;9.174;2024-03-07T03:38:38;2.70;99.90
48752;DHT22;34544;48.836;9.174;2024-03-07T03:41:03;2.70;99.90
48752;DHT22;34544;48.836;9.174;2024-03-07T03:43:30;2.70;99.90
48752;DHT22;34544;48.836;9.174;2024-03-07T03:45:57;2.70;99.90
48752;DHT22;34544;48.836;9.174;2024-03-07T03:48:23;2.70;99.90
48752;DHT22;34544;48.836;9.174;2024-03-07T03:50:49;2.70;99.90
48752;DHT22;34544;48.836;9.174;2024-03-07T03:53:15;2.70;99.90
48752;DHT22;34544;48.836;9.174;2024-03-07T03:55:41;2.70;99.90
48752;DHT22;34544;48.836;9.174;2024-03-07T03:58:06;2.80;99.90
48752;DHT22;34544;48.836;9.174;2024-03-07T04:00:32;2.70;99.90
48752;DHT22;34544;48.836;9.174;2024-03-07T04:02:58;2.80;99.90
48752;DHT22;34544;48.836;9.174;2024-03-07T04:05:24;2.90;99.90
48752;DHT22;34544;48.836;9.174;2024-03-07T04:07:50;3.00;99.90
48752;DHT22;34544;48.836;9.174;2024-03-07T04:10:16;2.90;99.90
48752;DHT22;34544;48.836;9.174;2024-03-07T04:12:43;3.00;99.90
48752;DHT22;34544;48.836;9.174;2024-03-07T04:15:11;2.90;99.90
48752;DHT22;34544;48.836;9.174;2024-03-07T04:17:38;3.10;99.90
48752;DHT22;34544;48.836;9.174;2024-03-07T04:20:05;3.10;99.90
48752;DHT22;34544;48.836;9.174;2024-03-07T04:22:32;3.20;99.90
48752;DHT22;34544;48.836;9.174;2024-03-07T04:24:59;3.20;99.90
48752;DHT22;34544;48.836;9.174;2024-03-07T04:27:24;3.30;99.90
48752;DHT22;34544;48.836;9.174;2024-03-07T04:29:51;3.30;99.90
48752;DHT22;34544;48.836;9.174;2024-03-07T04:32:17;3.40;99.90
48752;DHT22;34544;48.836;9.174;2024-03-07T04:34:47;3.40;99.90
48752;DHT22;34544;48.836;9.174;2024-03-07T04:37:13;3.40;99.90
48752;DHT22;34544;48.836;9.174;2024-03-07T04:39:39;3.40;99.90
48752;DHT22;34544;48.836;9.174;2024-03-07T04:42:06;3.40;99.90
48752;DHT22;34544;48.836;9.174;2024-03-07T04:44:34;3.40;99.90
48752;DHT22;34544;48.836;9.174;2024-03-07T04:47:02;3.40;99.90
48752;DHT22;34544;48.836;9.174;2024-03-07T04:49:29;3.30;99.90
48752;DHT22;34544;48.836;9.174;2024-03-07T04:51:56;3.20;99.90
48752;DHT22;34544;48.836;9.174;2024-03-07T04:54:24;3.20;99.90
48752;DHT22;34544;48.836;9.174;2024-03-07T04:56:51;3.10;99.90
48752;DHT22;34544;48.836;9.174;2024-03-07T04:59:19;3.10;99.90
48752;DHT22;34544;48.836;9.174;2024-03-07T05:01:46;2.90;99.90
48752;DHT22;34544;48.836;9.174;2024-03-07T05:04:13;2.80;99.90
48752;DHT22;34544;48.836;9.174;2024-03-07T05:06:40;2.80;99.90
48752;DHT22;34544;48.836;9.174;2024-03-07T05:09:07;2.70;99.90
48752;DHT22;34544;48.836;9.174;2024-03-07T05:11:35;2.60;99.90
48752;DHT22;34544;48.836;9.174;2024-03-07T05:14:02;2.50;99.90
48752;DHT22;34544;48.836;9.174;2024-03-07T05:16:29;2.50;99.90
48752;DHT22;34544;48.836;9.174;2024-03-07T05:18:55;2.40;99.90
48752;DHT22;34544;48.836;9.174;2024-03-07T05:21:26;2.30;99.90
48752;DHT22;34544;48.836;9.174;2024-03-07T05:24:03;2.30;99.90
48752;DHT22;34544;48.836;9.174;2024-03-07T05:26:30;2.10;99.90
48752;DHT22;34544;48.836;9.174;2024-03-07T05:29:08;2.10;99.90
48752;DHT22;34544;48.836;9.174;2024-03-07T05:31:38;2.10;99.90
48752;DHT22;34544;48.836;9.174;2024-03-07T05:34:04;2.10;99.90
48752;DHT22;34544;48.836;9.174;2024-03-07T05:36:37;2.00;99.90
48752;DHT22;34544;48.836;9.174;2024-03-07T05:39:10;1.90;99.90
48752;DHT22;34544;48.836;9.174;2024-03-07T05:41:37;1.90;99.90
48752;DHT22;34544;48.836;9.174;2024-03-07T05:44:04;1.80;99.90
48752;DHT22;34544;48.836;9.174;2024-03-07T05:46:41;1.80;99.90
48752;DHT22;34544;48.836;9.174;2024-03-07T05:49:14;1.80;99.90
48752;DHT22;34544;48.836;9.174;2024-03-07T05:51:41;1.80;99.90
48752;DHT22;34544;48.836;9.174;2024-03-07T05:54:13;1.60;99.90
48752;DHT22;34544;48.836;9.174;2024-03-07T05:56:40;1.70;99.90
48752;DHT22;34544;48.836;9.174;2024-03-07T05:59:07;1.60;99.90
48752;DHT22;34544;48.836;9.174;2024-03-07T06:01:35;1.60;99.90
48752;DHT22;34544;48.836;9.174;2024-03-07T06:04:02;1.70;99.90
48752;DHT22;34544;48.836;9.174;2024-03-07T06:06:28;1.70;99.90
48752;DHT22;34544;48.836;9.174;2024-03-07T06:08:57;1.70;99.90
48752;DHT22;34544;48.836;9.174;2024-03-07T06:11:23;1.70;99.90
48752;DHT22;34544;48.836;9.174;2024-03-07T06:13:49;1.70;99.90
48752;DHT22;34544;48.836;9.174;2024-03-07T06:16:15;1.70;99.90
48752;DHT22;34544;48.836;9.174;2024-03-07T06:18:41;1.70;99.90
48752;DHT22;34544;48.836;9.174;2024-03-07T06:21:07;1.80;99.90
48752;DHT22;34544;48.836;9.174;2024-03-07T06:23:34;1.80;99.90
48752;DHT22;34544;48.836;9.174;2024-03-07T06:26:00;1.80;99.90
48752;DHT22;34544;48.836;9.174;2024-03-07T06:28:26;1.80;99.90
48752;DHT22;34544;48.836;9.174;2024-03-07T06:30:55;1.80;99.90
48752;DHT22;34544;48.836;9.174;2024-03-07T06:33:22;1.90;99.90
48752;DHT22;34544;48.836;9.174;2024-03-07T06:35:48;1.90;99.90
48752;DHT22;34544;48.836;9.174;2024-03-07T06:38:14;2.00;99.90
48752;DHT22;34544;48.836;9.174;2024-03-07T06:40:41;2.00;99.90
48752;DHT22;34544;48.836;9.174;2024-03-07T06:43:08;2.10;99.90
48752;DHT22;34544;48.836;9.174;2024-03-07T06:45:37;2.10;99.90
48752;DHT22;34544;48.836;9.174;2024-03-07T06:48:06;2.10;99.90
48752;DHT22;34544;48.836;9.174;2024-03-07T06:50:34;2.20;99.90
48752;DHT22;34544;48.836;9.174;2024-03-07T06:53:00;2.20;99.90
48752;DHT22;34544;48.836;9.174;2024-03-07T06:55:26;2.30;99.90
48752;DHT22;34544;48.836;9.174;2024-03-07T06:57:53;2.40;99.90
48752;DHT22;34544;48.836;9.174;2024-03-07T07:00:19;2.50;99.90
48752;DHT22;34544;48.836;9.174;2024-03-07T07:02:46;2.70;99.90
48752;DHT22;34544;48.836;9.174;2024-03-07T07:05:12;2.70;99.90
48752;DHT22;34544;48.836;9.174;2024-03-07T07:07:50;2.90;99.90
48752;DHT22;34544;48.836;9.174;2024-03-07T07:10:19;3.00;99.90
48752;DHT22;34544;48.836;9.174;2024-03-07T07:12:45;3.10;99.90
48752;DHT22;34544;48.836;9.174;2024-03-07T07:15:13;3.20;99.90
48752;DHT22;34544;48.836;9.174;2024-03-07T07:17:39;3.30;99.90
48752;DHT22;34544;48.836;9.174;2024-03-07T07:20:05;3.50;99.90
48752;DHT22;34544;48.836;9.174;2024-03-07T07:22:39;3.60;99.90
48752;DHT22;34544;48.836;9.174;2024-03-07T07:25:06;3.80;99.90
48752;DHT22;34544;48.836;9.174;2024-03-07T07:27:41;4.10;99.90
48752;DHT22;34544;48.836;9.174;2024-03-07T07:30:11;4.40;99.90
48752;DHT22;34544;48.836;9.174;2024-03-07T07:32:38;4.70;99.90
48752;DHT22;34544;48.836;9.174;2024-03-07T07:35:04;4.90;99.90
48752;DHT22;34544;48.836;9.174;2024-03-07T07:37:35;5.20;99.90
48752;DHT22;34544;48.836;9.174;2024-03-07T07:40:03;5.40;99.90
48752;DHT22;34544;48.836;9.174;2024-03-07T07:42:29;5.60;99.90
48752;DHT22;34544;48.836;9.174;2024-03-07T07:44:55;5.80;99.90
48752;DHT22;34544;48.836;9.174;2024-03-07T07:47:21;5.70;99.90
48752;DHT22;34544;48.836;9.174;2024-03-07T07:49:46;5.70;99.90
48752;DHT22;34544;48.836;9.174;2024-03-07T07:52:12;5.60;99.90
48752;DHT22;34544;48.836;9.174;2024-03-07T07:54:42;5.60;99.90
48752;DHT22;34544;48.836;9.174;2024-03-07T07:57:08;5.60;99.90
48752;DHT22;34544;48.836;9.174;2024-03-07T07:59:35;5.70;99.90
48752;DHT22;34544;48.836;9.174;2024-03-07T08:02:02;5.70;99.90
48752;DHT22;34544;48.836;9.174;2024-03-07T08:04:31;5.90;99.90
48752;DHT22;34544;48.836;9.174;2024-03-07T08:06:58;6.00;99.90
48752;DHT22;34544;48.836;9.174;2024-03-07T08:09:24;6.10;99.90
48752;DHT22;34544;48.836;9.174;2024-03-07T08:11:50;6.00;99.90
48752;DHT22;34544;48.836;9.174;2024-03-07T08:14:15;6.10;99.90
48752;DHT22;34544;48.836;9.174;2024-03-07T08:16:41;6.10;99.90
48752;DHT22;34544;48.836;9.174;2024-03-07T08:19:07;6.20;99.90
48752;DHT22;34544;48.836;9.174;2024-03-07T08:21:34;6.40;99.90
48752;DHT22;34544;48.836;9.174;2024-03-07T08:24:00;6.70;99.90
48752;DHT22;34544;48.836;9.174;2024-03-07T08:26:29;7.00;99.90
48752;DHT22;34544;48.836;9.174;2024-03-07T08:28:55;7.20;99.90
48752;DHT22;34544;48.836;9.174;2024-03-07T08:33:46;7.50;99.90
48752;DHT22;34544;48.836;9.174;2024-03-07T08:36:12;7.80;99.90
48752;DHT22;34544;48.836;9.174;2024-03-07T08:38:38;7.80;99.90
48752;DHT22;34544;48.836;9.174;2024-03-07T08:41:04;7.70;99.90
48752;DHT22;34544;48.836;9.174;2024-03-07T08:43:30;7.40;99.90
48752;DHT22;34544;48.836;9.174;2024-03-07T08:45:56;7.30;99.90
48752;DHT22;34544;48.836;9.174;2024-03-07T08:48:22;7.10;99.90
48752;DHT22;34544;48.836;9.174;2024-03-07T08:50:48;7.00;99.90
48752;DHT22;34544;48.836;9.174;2024-03-07T08:53:14;7.00;99.90
48752;DHT22;34544;48.836;9.174;2024-03-07T08:55:40;6.90;99.90
48752;DHT22;34544;48.836;9.174;2024-03-07T08:58:06;7.00;99.90
48752;DHT22;34544;48.836;9.174;2024-03-07T09:00:34;7.00;99.90
48752;DHT22;34544;48.836;9.174;2024-03-07T09:03:00;7.20;99.90
48752;DHT22;34544;48.836;9.174;2024-03-07T09:05:30;7.20;99.90
48752;DHT22;34544;48.836;9.174;2024-03-07T09:07:59;7.20;99.90
48752;DHT22;34544;48.836;9.174;2024-03-07T09:10:25;7.20;99.90
48752;DHT22;34544;48.836;9.174;2024-03-07T09:12:51;7.20;99.90
48752;DHT22;34544;48.836;9.174;2024-03-07T09:15:18;7.20;99.90
48752;DHT22;34544;48.836;9.174;2024-03-07T09:17:44;7.10;99.90
48752;DHT22;34544;48.836;9.174;2024-03-07T09:20:12;6.90;99.90
48752;DHT22;34544;48.836;9.174;2024-03-07T09:22:45;6.90;99.90
48752;DHT22;34544;48.836;9.174;2024-03-07T09:25:13;7.10;99.90
48752;DHT22;34544;48.836;9.174;2024-03-07T09:27:39;7.30;99.90
48752;DHT22;34544;48.836;9.174;2024-03-07T09:30:08;7.60;99.90
48752;DHT22;34544;48.836;9.174;2024-03-07T09:32:40;7.70;99.90
48752;DHT22;34544;48.836;9.174;2024-03-07T09:35:10;7.80;99.90
48752;DHT22;34544;48.836;9.174;2024-03-07T09:37:40;8.00;99.90
48752;DHT22;34544;48.836;9.174;2024-03-07T09:40:09;8.10;99.90
48752;DHT22;34544;48.836;9.174;2024-03-07T09:42:46;8.40;99.90
48752;DHT22;34544;48.836;9.174;2024-03-07T09:45:20;8.50;99.90
48752;DHT22;34544;48.836;9.174;2024-03-07T09:47:49;8.60;99.90
48752;DHT22;34544;48.836;9.174;2024-03-07T09:50:16;8.80;99.90
48752;DHT22;34544;48.836;9.174;2024-03-07T09:52:45;9.10;99.90
48752;DHT22;34544;48.836;9.174;2024-03-07T09:55:12;9.30;99.90
48752;DHT22;34544;48.836;9.174;2024-03-07T09:57:39;9.90;99.90
48752;DHT22;34544;48.836;9.174;2024-03-07T10:00:07;10.20;99.90
48752;DHT22;34544;48.836;9.174;2024-03-07T10:02:39;10.40;99.90
48752;DHT22;34544;48.836;9.174;2024-03-07T10:05:08;10.50;99.90
48752;DHT22;34544;48.836;9.174;2024-03-07T10:07:35;10.50;99.90
48752;DHT22;34544;48.836;9.174;2024-03-07T10:10:02;11.00;99.90
48752;DHT22;34544;48.836;9.174;2024-03-07T10:12:35;11.60;99.90
48752;DHT22;34544;48.836;9.174;2024-03-07T10:15:04;11.70;99.90
48752;DHT22;34544;48.836;9.174;2024-03-07T10:17:36;12.10;99.90
48752;DHT22;34544;48.836;9.174;2024-03-07T10:29:52;14.30;99.90
48752;DHT22;34544;48.836;9.174;2024-03-07T10:37:17;14.70;99.90
48752;DHT22;34544;48.836;9.174;2024-03-07T10:39:49;14.10;99.90
48752;DHT22;34544;48.836;9.174;2024-03-07T10:42:18;13.50;99.90
48752;DHT22;34544;48.836;9.174;2024-03-07T10:44:48;13.70;99.90
48752;DHT22;34544;48.836;9.174;2024-03-07T10:47:18;13.90;99.90
48752;DHT22;34544;48.836;9.174;2024-03-07T10:50:04;14.20;99.90
48752;DHT22;34544;48.836;9.174;2024-03-07T10:53:05;14.30;99.90
48752;DHT22;34544;48.836;9.174;2024-03-07T10:58:33;14.40;99.90
48752;DHT22;34544;48.836;9.174;2024-03-07T11:01:04;14.50;99.90
48752;DHT22;34544;48.836;9.174;2024-03-07T11:03:37;14.50;99.90
48752;DHT22;34544;48.836;9.174;2024-03-07T11:06:04;14.90;99.90
48752;DHT22;34544;48.836;9.174;2024-03-07T11:11:00;15.00;99.90
48752;DHT22;34544;48.836;9.174;2024-03-07T11:13:27;15.00;99.90
48752;DHT22;34544;48.836;9.174;2024-03-07T11:15:54;14.70;99.90
48752;DHT22;34544;48.836;9.174;2024-03-07T11:18:24;14.00;99.90
48752;DHT22;34544;48.836;9.174;2024-03-07T11:20:50;13.80;99.90
48752;DHT22;34544;48.836;9.174;2024-03-07T11:26:08;13.70;99.90
48752;DHT22;34544;48.836;9.174;2024-03-07T11:28:39;13.40;99.90
48752;DHT22;34544;48.836;9.174;2024-03-07T11:31:12;13.40;99.90
48752;DHT22;34544;48.836;9.174;2024-03-07T11:33:39;13.10;99.90
48752;DHT22;34544;48.836;9.174;2024-03-07T11:36:10;13.30;99.90
48752;DHT22;34544;48.836;9.174;2024-03-07T11:38:48;12.90;99.90
48752;DHT22;34544;48.836;9.174;2024-03-07T11:41:14;12.70;99.90
48752;DHT22;34544;48.836;9.174;2024-03-07T11:43:43;12.60;99.90
48752;DHT22;34544;48.836;9.174;2024-03-07T11:46:09;12.40;99.90
48752;DHT22;34544;48.836;9.174;2024-03-07T11:48:40;12.00;99.90
48752;DHT22;34544;48.836;9.174;2024-03-07T11:51:12;11.80;99.90
48752;DHT22;34544;48.836;9.174;2024-03-07T11:53:39;11.70;99.90
48752;DHT22;34544;48.836;9.174;2024-03-07T11:56:05;11.50;99.90
48752;DHT22;34544;48.836;9.174;2024-03-07T11:58:46;11.50;99.90
48752;DHT22;34544;48.836;9.174;2024-03-07T12:03:44;11.20;99.90
48752;DHT22;34544;48.836;9.174;2024-03-07T12:06:10;11.30;99.90
48752;DHT22;34544;48.836;9.174;2024-03-07T12:08:39;11.40;99.90
48752;DHT22;34544;48.836;9.174;2024-03-07T12:11:04;11.50;99.90
48752;DHT22;34544;48.836;9.174;2024-03-07T12:13:30;11.50;99.90
48752;DHT22;34544;48.836;9.174;2024-03-07T12:15:58;11.50;99.90
48752;DHT22;34544;48.836;9.174;2024-03-07T12:18:24;11.40;99.90
48752;DHT22;34544;48.836;9.174;2024-03-07T12:20:52;11.40;99.90
48752;DHT22;34544;48.836;9.174;2024-03-07T12:23:23;11.20;99.90
48752;DHT22;34544;48.836;9.174;2024-03-07T12:25:59;11.00;99.90
48752;DHT22;34544;48.836;9.174;2024-03-07T12:30:56;10.70;99.90
48752;DHT22;34544;48.836;9.174;2024-03-07T12:33:23;10.60;99.90
48752;DHT22;34544;48.836;9.174;2024-03-07T12:35:52;10.40;99.90
48752;DHT22;34544;48.836;9.174;2024-03-07T12:38:19;10.20;99.90
48752;DHT22;34544;48.836;9.174;2024-03-07T12:40:45;10.00;99.90
48752;DHT22;34544;48.836;9.174;2024-03-07T12:43:16;10.10;99.90
48752;DHT22;34544;48.836;9.174;2024-03-07T12:45:50;10.10;99.90
48752;DHT22;34544;48.836;9.174;2024-03-07T12:48:18;10.10;99.90
48752;DHT22;34544;48.836;9.174;2024-03-07T12:50:48;10.10;99.90
48752;DHT22;34544;48.836;9.174;2024-03-07T12:53:22;10.10;99.90
48752;DHT22;34544;48.836;9.174;2024-03-07T12:55:48;10.00;99.90
48752;DHT22;34544;48.836;9.174;2024-03-07T12:58:16;10.10;99.90
48752;DHT22;34544;48.836;9.174;2024-03-07T13:00:42;9.90;99.90
48752;DHT22;34544;48.836;9.174;2024-03-07T13:03:09;9.80;99.90
48752;DHT22;34544;48.836;9.174;2024-03-07T13:05:36;9.80;99.90
48752;DHT22;34544;48.836;9.174;2024-03-07T13:08:06;9.90;99.90
48752;DHT22;34544;48.836;9.174;2024-03-07T13:10:41;9.80;99.90
48752;DHT22;34544;48.836;9.174;2024-03-07T13:13:07;9.60;99.90
48752;DHT22;34544;48.836;9.174;2024-03-07T13:15:38;9.60;99.90
48752;DHT22;34544;48.836;9.174;2024-03-07T13:18:05;9.40;99.90
48752;DHT22;34544;48.836;9.174;2024-03-07T13:20:31;9.50;99.90
48752;DHT22;34544;48.836;9.174;2024-03-07T13:22:57;9.30;99.90
48752;DHT22;34544;48.836;9.174;2024-03-07T13:28:05;9.10;99.90
48752;DHT22;34544;48.836;9.174;2024-03-07T13:30:43;9.10;99.90
48752;DHT22;34544;48.836;9.174;2024-03-07T13:33:09;9.30;99.90
48752;DHT22;34544;48.836;9.174;2024-03-07T13:35:40;9.30;99.90
48752;DHT22;34544;48.836;9.174;2024-03-07T13:38:06;9.40;99.90
48752;DHT22;34544;48.836;9.174;2024-03-07T13:40:34;9.40;99.90
48752;DHT22;34544;48.836;9.174;2024-03-07T13:43:04;9.40;99.90
48752;DHT22;34544;48.836;9.174;2024-03-07T13:45:35;9.50;99.90
48752;DHT22;34544;48.836;9.174;2024-03-07T13:48:10;9.60;99.90
48752;DHT22;34544;48.836;9.174;2024-03-07T13:50:38;9.60;99.90
48752;DHT22;34544;48.836;9.174;2024-03-07T13:53:06;9.60;99.90
48752;DHT22;34544;48.836;9.174;2024-03-07T13:58:51;9.60;99.90
48752;DHT22;34544;48.836;9.174;2024-03-07T14:01:41;9.60;99.90
48752;DHT22;34544;48.836;9.174;2024-03-07T14:12:52;10.10;99.90
48752;DHT22;34544;48.836;9.174;2024-03-07T14:27:27;10.30;99.90
48752;DHT22;34544;48.836;9.174;2024-03-07T14:32:38;10.30;99.90
48752;DHT22;34544;48.836;9.174;2024-03-07T14:38:22;10.20;99.90
48752;DHT22;34544;48.836;9.174;2024-03-07T14:40:49;10.20;99.90
48752;DHT22;34544;48.836;9.174;2024-03-07T14:43:17;10.10;99.90
48752;DHT22;34544;48.836;9.174;2024-03-07T14:45:43;10.10;99.90
48752;DHT22;34544;48.836;9.174;2024-03-07T14:48:10;10.10;99.90
48752;DHT22;34544;48.836;9.174;2024-03-07T14:50:41;10.00;99.90
48752;DHT22;34544;48.836;9.174;2024-03-07T14:53:07;10.00;99.90
48752;DHT22;34544;48.836;9.174;2024-03-07T14:55:35;10.00;99.90
48752;DHT22;34544;48.836;9.174;2024-03-07T14:58:01;9.90;99.90
48752;DHT22;34544;48.836;9.174;2024-03-07T15:00:29;9.90;99.90
48752;DHT22;34544;48.836;9.174;2024-03-07T15:03:00;9.90;99.90
48752;DHT22;34544;48.836;9.174;2024-03-07T15:05:26;9.90;99.90
48752;DHT22;34544;48.836;9.174;2024-03-07T15:07:53;9.90;99.90
48752;DHT22;34544;48.836;9.174;2024-03-07T15:10:34;9.90;99.90
48752;DHT22;34544;48.836;9.174;2024-03-07T15:13:01;10.00;99.90
48752;DHT22;34544;48.836;9.174;2024-03-07T15:15:28;10.00;99.90
48752;DHT22;34544;48.836;9.174;2024-03-07T15:17:57;10.10;99.90
48752;DHT22;34544;48.836;9.174;2024-03-07T15:20:23;10.00;99.90
48752;DHT22;34544;48.836;9.174;2024-03-07T15:22:52;9.90;99.90
48752;DHT22;34544;48.836;9.174;2024-03-07T15:25:21;9.90;99.90
48752;DHT22;34544;48.836;9.174;2024-03-07T15:27:52;9.90;99.90
48752;DHT22;34544;48.836;9.174;2024-03-07T15:30:19;9.90;99.90
48752;DHT22;34544;48.836;9.174;2024-03-07T15:32:46;9.90;99.90
48752;DHT22;34544;48.836;9.174;2024-03-07T15:35:13;9.80;99.90
48752;DHT22;34544;48.836;9.174;2024-03-07T15:37:49;9.80;99.90
48752;DHT22;34544;48.836;9.174;2024-03-07T15:40:16;9.80;99.90
48752;DHT22;34544;48.836;9.174;2024-03-07T15:42:47;9.70;99.90
48752;DHT22;34544;48.836;9.174;2024-03-07T15:45:20;9.60;99.90
48752;DHT22;34544;48.836;9.174;2024-03-07T15:50:17;9.50;99.90
48752;DHT22;34544;48.836;9.174;2024-03-07T15:52:50;9.40;99.90
48752;DHT22;34544;48.836;9.174;2024-03-07T15:55:17;9.40;99.90
48752;DHT22;34544;48.836;9.174;2024-03-07T15:57:48;9.40;99.90
48752;DHT22;34544;48.836;9.174;2024-03-07T16:05:15;9.30;99.90
48752;DHT22;34544;48.836;9.174;2024-03-07T16:07:42;9.30;99.90
48752;DHT22;34544;48.836;9.174;2024-03-07T16:10:08;9.30;99.90
48752;DHT22;34544;48.836;9.174;2024-03-07T16:12:34;9.20;99.90
48752;DHT22;34544;48.836;9.174;2024-03-07T16:15:01;9.10;99.90
48752;DHT22;34544;48.836;9.174;2024-03-07T16:17:27;9.00;99.90
48752;DHT22;34544;48.836;9.174;2024-03-07T16:19:52;9.00;99.90
48752;DHT22;34544;48.836;9.174;2024-03-07T16:22:18;8.90;99.90
48752;DHT22;34544;48.836;9.174;2024-03-07T16:24:44;8.80;99.90
48752;DHT22;34544;48.836;9.174;2024-03-07T16:29:36;8.70;99.90
48752;DHT22;34544;48.836;9.174;2024-03-07T16:32:02;8.60;99.90
48752;DHT22;34544;48.836;9.174;2024-03-07T16:34:31;8.60;99.90
48752;DHT22;34544;48.836;9.174;2024-03-07T16:36:57;8.80;99.90
48752;DHT22;34544;48.836;9.174;2024-03-07T16:39:22;8.50;99.90
48752;DHT22;34544;48.836;9.174;2024-03-07T16:41:49;8.50;99.90
48752;DHT22;34544;48.836;9.174;2024-03-07T16:44:15;8.50;99.90
48752;DHT22;34544;48.836;9.174;2024-03-07T16:46:42;8.40;99.90
48752;DHT22;34544;48.836;9.174;2024-03-07T16:49:08;8.40;99.90
48752;DHT22;34544;48.836;9.174;2024-03-07T16:51:34;8.40;99.90
48752;DHT22;34544;48.836;9.174;2024-03-07T16:54:00;8.40;99.90
48752;DHT22;34544;48.836;9.174;2024-03-07T16:56:26;8.50;99.90
48752;DHT22;34544;48.836;9.174;2024-03-07T17:01:18;8.70;99.90
48752;DHT22;34544;48.836;9.174;2024-03-07T17:03:43;8.40;99.90
48752;DHT22;34544;48.836;9.174;2024-03-07T17:06:09;8.40;99.90
48752;DHT22;34544;48.836;9.174;2024-03-07T17:11:04;8.40;99.90